Аэропорт: им. Гейдара Алиева. Баку

ICAO: UBBB

METAR:
2022-06-26 10:00:00
UBBB 261000Z 01018KT 9999 FEW060CB 29/17 Q1001 NOSIG
METAR:
2022-06-26 05:21:00
TAF UBBB 260521Z 2606/2706 33018G28KT CAVOK TX29/2610Z TN22/2701Z TEMPO 2606/2620 35022KT SCT012 FEW050CB TEMPO 2620/2706 34024G34KT